createdAt,value
2019-01-08T00:04:26.096Z,11.90
2019-01-08T00:09:31.675Z,12.60
2019-01-08T00:14:57.667Z,11.27
2019-01-08T00:20:05.839Z,11.20
2019-01-08T00:25:09.446Z,12.20
2019-01-08T00:30:13.056Z,11.10
2019-01-08T00:35:19.381Z,11.20
2019-01-08T00:40:23.005Z,11.30
2019-01-08T00:45:26.599Z,11.00
2019-01-08T00:50:30.312Z,11.07
2019-01-08T00:55:35.570Z,11.57
2019-01-08T01:00:47.887Z,11.13
2019-01-08T01:05:57.006Z,10.97
2019-01-08T01:11:00.621Z,10.47
2019-01-08T01:16:07.438Z,10.07
2019-01-08T01:21:13.746Z,11.77
2019-01-08T01:26:17.349Z,10.90
2019-01-08T01:31:21.110Z,11.50
2019-01-08T01:36:24.798Z,11.50
2019-01-08T01:41:29.981Z,11.50
2019-01-08T01:46:38.427Z,11.40
2019-01-08T01:51:52.602Z,11.93
2019-01-08T01:56:56.201Z,12.07
2019-01-08T02:02:01.171Z,11.80
2019-01-08T02:07:06.413Z,10.50
2019-01-08T02:12:10.078Z,11.23
2019-01-08T02:17:24.204Z,12.13
2019-01-08T02:22:29.693Z,11.90
2019-01-08T02:27:36.098Z,10.20
2019-01-08T02:32:39.738Z,11.13
2019-01-08T02:37:46.020Z,11.40
2019-01-08T02:42:54.284Z,13.03
2019-01-08T02:47:58.054Z,11.87
2019-01-08T02:53:04.846Z,11.10
2019-01-08T02:58:08.450Z,11.57
2019-01-08T03:03:16.121Z,10.73
2019-01-08T03:08:19.724Z,10.40
2019-01-08T03:13:26.278Z,11.47
2019-01-08T03:18:32.408Z,10.50
2019-01-08T03:23:36.016Z,12.30
2019-01-08T03:28:42.426Z,12.30
2019-01-08T03:33:50.650Z,10.93
2019-01-08T03:38:56.978Z,12.80
2019-01-08T03:44:01.192Z,11.70
2019-01-08T03:49:04.886Z,11.67
2019-01-08T03:54:13.107Z,12.63
2019-01-08T03:59:18.322Z,11.60
2019-01-08T04:04:24.971Z,11.20
2019-01-08T04:14:39.982Z,12.57
2019-01-08T04:19:46.416Z,13.07
2019-01-08T04:24:52.945Z,13.33
2019-01-08T04:29:59.779Z,11.70
2019-01-08T04:35:03.470Z,12.27
2019-01-08T04:40:08.943Z,11.90
2019-01-08T04:45:12.544Z,13.50
2019-01-08T04:50:16.166Z,12.37
2019-01-08T04:55:20.232Z,12.87
2019-01-08T05:00:23.839Z,11.97
2019-01-08T05:05:30.119Z,13.20
2019-01-08T05:11:00.504Z,13.53
2019-01-08T05:16:07.525Z,11.70
2019-01-08T05:21:14.245Z,13.50
2019-01-08T05:26:17.791Z,13.73
2019-01-08T05:31:21.406Z,14.37
2019-01-08T05:36:25.040Z,14.20
2019-01-08T05:41:28.667Z,13.40
2019-01-08T05:46:35.260Z,13.10
2019-01-08T05:51:41.821Z,12.10
2019-01-08T05:56:48.395Z,10.60
2019-01-08T06:01:55.412Z,12.50
2019-01-08T06:06:58.949Z,12.03
2019-01-08T06:12:05.235Z,13.00
2019-01-08T06:17:11.326Z,12.10
2019-01-08T06:22:14.927Z,11.47
2019-01-08T06:27:18.559Z,11.63
2019-01-08T06:32:23.819Z,9.77
2019-01-08T06:37:27.431Z,10.40
2019-01-08T06:42:32.958Z,12.00
2019-01-08T06:47:38.003Z,10.10
2019-01-08T06:52:43.273Z,11.27
2019-01-08T06:57:46.885Z,11.43
2019-01-08T07:02:50.496Z,9.87
2019-01-08T07:07:56.774Z,10.83
2019-01-08T07:13:03.599Z,9.27
2019-01-08T07:18:15.852Z,8.37
2019-01-08T07:23:26.511Z,9.60
2019-01-08T07:28:32.077Z,9.70
2019-01-08T07:33:39.755Z,9.43
2019-01-08T07:38:43.381Z,8.43
2019-01-08T07:43:46.975Z,8.80
2019-01-08T07:48:53.658Z,9.90
2019-01-08T07:54:06.322Z,7.30
2019-01-08T07:59:09.941Z,5.60
2019-01-08T08:04:19.568Z,7.30
2019-01-08T08:09:32.055Z,6.83
2019-01-08T08:14:38.190Z,6.47
2019-01-08T08:19:41.850Z,6.50
2019-01-08T08:24:48.186Z,6.50
2019-01-08T08:29:51.963Z,5.67
2019-01-08T08:34:55.582Z,6.27
2019-01-08T08:39:59.191Z,5.00
2019-01-08T08:45:02.816Z,6.60
2019-01-08T08:50:07.118Z,5.00
2019-01-08T08:55:12.348Z,4.67
2019-01-08T09:00:18.915Z,6.53
2019-01-08T09:05:25.663Z,5.20
2019-01-08T09:10:30.979Z,4.37
2019-01-08T09:15:37.067Z,5.67
2019-01-08T09:20:43.344Z,5.30
2019-01-08T09:25:46.959Z,3.80
2019-01-08T09:30:53.239Z,4.70
2019-01-08T09:36:00.637Z,4.40
2019-01-08T09:41:14.873Z,5.10
2019-01-08T09:46:18.564Z,4.43
2019-01-08T09:51:27.329Z,4.60
2019-01-08T09:56:31.014Z,5.17
2019-01-08T10:01:37.407Z,4.33
2019-01-08T10:06:41.071Z,4.73
2019-01-08T10:11:46.325Z,4.67
2019-01-08T10:16:51.575Z,4.43
2019-01-08T10:22:01.001Z,5.40
2019-01-08T10:27:03.720Z,5.07
2019-01-08T10:32:09.190Z,4.93
2019-01-08T10:37:14.438Z,5.30
2019-01-08T10:42:18.058Z,5.87
2019-01-08T10:47:24.396Z,5.57
2019-01-08T10:52:28.001Z,5.43
2019-01-08T10:57:31.694Z,5.80
2019-01-08T11:02:35.322Z,5.90
2019-01-08T11:07:38.995Z,5.30
2019-01-08T11:12:45.311Z,5.63
2019-01-08T11:17:50.564Z,5.80
2019-01-08T11:22:54.185Z,5.80
2019-01-08T11:27:57.864Z,4.70
2019-01-08T11:33:05.107Z,5.93
2019-01-08T11:38:08.738Z,4.70
2019-01-08T11:43:19.026Z,4.93
2019-01-08T11:48:23.394Z,4.47
2019-01-08T11:53:27.028Z,3.57
2019-01-08T11:58:36.170Z,3.40
2019-01-08T12:03:41.484Z,3.07
2019-01-08T12:08:50.118Z,3.03
2019-01-08T12:13:56.226Z,3.23
2019-01-08T12:18:59.851Z,3.13
2019-01-08T12:24:05.113Z,2.40
2019-01-08T12:29:10.443Z,2.90
2019-01-08T12:34:14.150Z,2.93
2019-01-08T12:39:19.454Z,2.60
2019-01-08T12:44:25.791Z,3.43
2019-01-08T12:49:29.402Z,3.77
2019-01-08T12:54:40.760Z,3.20
2019-01-08T12:59:44.654Z,2.70
2019-01-08T13:04:51.194Z,3.63
2019-01-08T13:09:54.803Z,3.13
2019-01-08T13:14:59.334Z,3.40
2019-01-08T13:20:05.781Z,3.80
2019-01-08T13:25:09.445Z,4.03
2019-01-08T13:30:13.115Z,3.50
2019-01-08T13:35:19.488Z,4.83
2019-01-08T13:40:25.322Z,4.10
2019-01-08T13:45:28.694Z,4.50
2019-01-08T13:50:36.274Z,4.43
2019-01-08T13:55:41.515Z,3.90
2019-01-08T14:00:46.852Z,2.53
2019-01-08T14:05:50.484Z,2.60
2019-01-08T14:10:56.988Z,2.50
2019-01-08T14:16:00.600Z,2.40
2019-01-08T14:21:06.742Z,2.60
2019-01-08T14:26:12.878Z,2.60
2019-01-08T14:31:19.704Z,2.60
2019-01-08T14:36:23.954Z,2.90
2019-01-08T14:41:27.561Z,2.03
2019-01-08T14:46:31.278Z,2.20
2019-01-08T14:51:35.161Z,2.60
2019-01-08T14:56:38.822Z,2.40
2019-01-08T15:01:44.015Z,1.90
2019-01-08T15:06:51.850Z,2.30
2019-01-08T15:11:57.946Z,2.53
2019-01-08T15:17:08.289Z,2.63
2019-01-08T15:22:15.076Z,1.53
2019-01-08T15:27:19.630Z,2.00
2019-01-08T15:32:23.341Z,2.10
2019-01-08T15:37:26.950Z,2.50
2019-01-08T15:42:30.568Z,3.03
2019-01-08T15:47:34.307Z,2.03
2019-01-08T15:52:38.013Z,2.63
2019-01-08T15:57:41.601Z,2.40
2019-01-08T16:02:45.220Z,2.20
2019-01-08T16:07:48.953Z,2.30
2019-01-08T16:12:54.509Z,3.20
2019-01-08T16:17:58.124Z,2.80
2019-01-08T16:23:04.672Z,2.30
2019-01-08T16:28:08.386Z,2.70
2019-01-08T16:33:16.077Z,2.60
2019-01-08T16:38:20.046Z,3.10
2019-01-08T16:43:29.711Z,2.70
2019-01-08T16:48:36.810Z,2.73
2019-01-08T16:53:44.414Z,1.97
2019-01-08T16:58:59.843Z,2.47
2019-01-08T17:04:03.487Z,2.30
2019-01-08T17:09:07.135Z,1.80
2019-01-08T17:14:16.700Z,2.33
2019-01-08T17:19:20.368Z,1.73
2019-01-08T17:24:29.231Z,2.70
2019-01-08T17:29:36.062Z,3.60
2019-01-08T17:34:39.945Z,2.63
2019-01-08T17:39:46.511Z,2.37
2019-01-08T17:44:55.939Z,2.60
2019-01-08T17:50:01.065Z,2.40
2019-01-08T17:55:08.086Z,2.73
2019-01-08T18:00:41.811Z,6.97
2019-01-08T18:05:17.995Z,2.07
2019-01-08T18:10:24.338Z,2.73
2019-01-08T18:15:30.656Z,2.50
2019-01-08T18:20:34.276Z,2.53
2019-01-08T18:25:40.902Z,2.43
2019-01-08T18:30:44.735Z,2.53
2019-01-08T18:35:50.894Z,1.87
2019-01-08T18:40:54.492Z,2.70
2019-01-08T18:46:01.112Z,3.33
2019-01-08T18:51:13.538Z,2.67
2019-01-08T18:56:19.319Z,2.50
2019-01-08T19:01:22.928Z,3.13
2019-01-08T19:06:26.555Z,2.37
2019-01-08T19:11:30.359Z,2.47
2019-01-08T19:16:38.459Z,2.10
2019-01-08T19:21:44.326Z,2.73
2019-01-08T19:26:51.063Z,2.23
2019-01-08T19:31:54.706Z,2.63
2019-01-08T19:37:01.299Z,2.57
2019-01-08T19:42:04.980Z,2.90
2019-01-08T19:47:13.027Z,2.80
2019-01-08T19:52:19.416Z,2.70
2019-01-08T19:57:23.144Z,2.83
2019-01-08T20:02:29.412Z,2.40
2019-01-08T20:07:35.474Z,2.90
2019-01-08T20:12:43.490Z,2.50
2019-01-08T20:17:50.185Z,2.83
2019-01-08T20:22:58.755Z,2.90
2019-01-08T20:28:02.712Z,3.00
2019-01-08T20:33:06.363Z,2.97
2019-01-08T20:38:17.605Z,2.87
2019-01-08T20:43:21.794Z,2.97
2019-01-08T20:48:25.445Z,3.00
2019-01-08T20:53:30.782Z,3.30
2019-01-08T20:58:34.414Z,3.23
2019-01-08T21:03:38.094Z,2.80
2019-01-08T21:08:41.710Z,3.27
2019-01-08T21:13:46.989Z,2.80
2019-01-08T21:18:53.353Z,2.70
2019-01-08T21:23:56.957Z,2.53
2019-01-08T21:29:06.167Z,2.33
2019-01-08T21:34:10.608Z,2.13
2019-01-08T21:39:16.104Z,2.80
2019-01-08T21:44:22.383Z,2.20
2019-01-08T21:49:25.986Z,2.50
2019-01-08T21:54:35.336Z,2.60
2019-01-08T21:59:41.726Z,2.93
2019-01-08T22:04:52.918Z,2.93
2019-01-08T22:09:50.678Z,2.97
2019-01-08T22:14:55.927Z,2.70
2019-01-08T22:20:02.488Z,3.30
2019-01-08T22:25:06.354Z,2.60
2019-01-08T22:30:12.550Z,2.27
2019-01-08T22:35:16.980Z,2.57
2019-01-08T22:40:22.484Z,1.90
2019-01-08T22:45:27.495Z,2.53
2019-01-08T22:50:31.150Z,2.10
2019-01-08T22:55:35.114Z,2.30
2019-01-08T23:00:52.658Z,1.73
2019-01-08T23:06:04.126Z,2.57
2019-01-08T23:11:22.385Z,2.30
2019-01-08T23:16:27.687Z,2.50
2019-01-08T23:21:34.282Z,2.60
2019-01-08T23:26:39.532Z,3.00
2019-01-08T23:31:43.227Z,2.57
2019-01-08T23:36:46.925Z,2.27
2019-01-08T23:41:50.662Z,2.03
2019-01-08T23:47:02.784Z,2.20
2019-01-08T23:52:08.903Z,2.67
2019-01-08T23:57:16.986Z,3.50
